sensor_id;sensor_type;location;lat;lon;timestamp;temperature;humidity
17007;DHT22;8620;51.168;4.154;2022-12-10T07:37:08;-0.70;99.90
17007;DHT22;8620;51.168;4.154;2022-12-10T07:39:35;-0.50;99.90
17007;DHT22;8620;51.168;4.154;2022-12-10T07:42:21;-0.40;99.90
17007;DHT22;8620;51.168;4.154;2022-12-10T07:44:49;-0.50;99.90
17007;DHT22;8620;51.168;4.154;2022-12-10T07:47:25;-0.60;99.90
17007;DHT22;8620;51.168;4.154;2022-12-10T07:49:50;-0.40;99.90
17007;DHT22;8620;51.168;4.154;2022-12-10T07:52:19;-0.30;99.90
17007;DHT22;8620;51.168;4.154;2022-12-10T07:54:48;-0.20;99.90
17007;DHT22;8620;51.168;4.154;2022-12-10T07:57:14;-0.20;99.90
17007;DHT22;8620;51.168;4.154;2022-12-10T07:59:43;-0.10;99.90
17007;DHT22;8620;51.168;4.154;2022-12-10T08:02:09;-0.20;99.90
17007;DHT22;8620;51.168;4.154;2022-12-10T08:04:35;-0.30;99.90
17007;DHT22;8620;51.168;4.154;2022-12-10T08:07:11;-0.50;99.90
17007;DHT22;8620;51.168;4.154;2022-12-10T08:09:57;-0.60;99.90
17007;DHT22;8620;51.168;4.154;2022-12-10T08:12:44;-0.80;99.90
17007;DHT22;8620;51.168;4.154;2022-12-10T08:15:10;-0.90;99.90
17007;DHT22;8620;51.168;4.154;2022-12-10T08:17:38;-0.90;99.90
17007;DHT22;8620;51.168;4.154;2022-12-10T08:20:04;-0.80;99.90
17007;DHT22;8620;51.168;4.154;2022-12-10T08:22:33;-0.60;99.90
17007;DHT22;8620;51.168;4.154;2022-12-10T08:25:01;-0.60;99.90
17007;DHT22;8620;51.168;4.154;2022-12-10T08:27:46;-0.40;99.90
17007;DHT22;8620;51.168;4.154;2022-12-10T08:30:13;-0.50;99.90
17007;DHT22;8620;51.168;4.154;2022-12-10T08:32:42;-0.50;99.90
17007;DHT22;8620;51.168;4.154;2022-12-10T08:35:08;-0.70;99.90
17007;DHT22;8620;51.168;4.154;2022-12-10T08:37:41;-0.80;99.90
17007;DHT22;8620;51.168;4.154;2022-12-10T08:40:25;-0.80;99.90
17007;DHT22;8620;51.168;4.154;2022-12-10T08:42:53;-0.70;99.90
17007;DHT22;8620;51.168;4.154;2022-12-10T08:45:24;-0.70;99.90
17007;DHT22;8620;51.168;4.154;2022-12-10T08:47:52;-0.80;99.90
17007;DHT22;8620;51.168;4.154;2022-12-10T08:50:21;-0.70;99.90
17007;DHT22;8620;51.168;4.154;2022-12-10T08:52:49;-0.30;99.90
17007;DHT22;8620;51.168;4.154;2022-12-10T08:55:19;-0.20;99.90
17007;DHT22;8620;51.168;4.154;2022-12-10T08:57:50;-0.10;99.90
17007;DHT22;8620;51.168;4.154;2022-12-10T09:00:19;-0.20;99.90
17007;DHT22;8620;51.168;4.154;2022-12-10T09:02:53;-0.30;99.90
17007;DHT22;8620;51.168;4.154;2022-12-10T09:05:19;-0.40;99.90
17007;DHT22;8620;51.168;4.154;2022-12-10T09:07:47;-0.50;99.90
17007;DHT22;8620;51.168;4.154;2022-12-10T09:10:16;-0.40;99.90
17007;DHT22;8620;51.168;4.154;2022-12-10T09:12:45;-0.20;99.90
17007;DHT22;8620;51.168;4.154;2022-12-10T09:15:11;-0.10;99.90
17007;DHT22;8620;51.168;4.154;2022-12-10T09:17:38;0.10;99.90
17007;DHT22;8620;51.168;4.154;2022-12-10T09:20:04;0.10;99.90
17007;DHT22;8620;51.168;4.154;2022-12-10T09:22:34;-0.10;99.90
17007;DHT22;8620;51.168;4.154;2022-12-10T09:25:06;-0.10;99.90
17007;DHT22;8620;51.168;4.154;2022-12-10T09:27:33;-0.30;99.90
17007;DHT22;8620;51.168;4.154;2022-12-10T09:29:59;-0.30;99.90
17007;DHT22;8620;51.168;4.154;2022-12-10T09:32:27;-0.30;99.90
17007;DHT22;8620;51.168;4.154;2022-12-10T09:34:53;-0.30;99.90
17007;DHT22;8620;51.168;4.154;2022-12-10T09:37:23;-0.30;99.90
17007;DHT22;8620;51.168;4.154;2022-12-10T09:39:49;-0.20;99.90
17007;DHT22;8620;51.168;4.154;2022-12-10T09:46:06;-0.20;99.90
17007;DHT22;8620;51.168;4.154;2022-12-10T09:48:58;-0.20;99.90
17007;DHT22;8620;51.168;4.154;2022-12-10T09:51:36;-0.10;99.90
17007;DHT22;8620;51.168;4.154;2022-12-10T09:54:11;-0.10;99.90
17007;DHT22;8620;51.168;4.154;2022-12-10T09:56:48;-0.20;99.90
17007;DHT22;8620;51.168;4.154;2022-12-10T09:59:20;-0.10;99.90
17007;DHT22;8620;51.168;4.154;2022-12-10T10:05:19;0.10;99.90
17007;DHT22;8620;51.168;4.154;2022-12-10T10:07:55;0.20;99.90
17007;DHT22;8620;51.168;4.154;2022-12-10T10:10:27;0.20;99.90
17007;DHT22;8620;51.168;4.154;2022-12-10T10:13:00;0.30;99.90
17007;DHT22;8620;51.168;4.154;2022-12-10T10:15:35;0.30;99.90
17007;DHT22;8620;51.168;4.154;2022-12-10T10:18:45;0.10;99.90
17007;DHT22;8620;51.168;4.154;2022-12-10T10:33:53;0.20;99.90
17007;DHT22;8620;51.168;4.154;2022-12-10T10:37:11;0.10;99.90
17007;DHT22;8620;51.168;4.154;2022-12-10T10:40:09;0.20;99.90
17007;DHT22;8620;51.168;4.154;2022-12-10T10:42:58;0.50;99.90
17007;DHT22;8620;51.168;4.154;2022-12-10T10:46:22;0.70;99.90
17007;DHT22;8620;51.168;4.154;2022-12-10T10:53:06;0.70;99.90
17007;DHT22;8620;51.168;4.154;2022-12-10T10:56:14;0.50;99.90
17007;DHT22;8620;51.168;4.154;2022-12-10T11:01:52;0.70;99.90
17007;DHT22;8620;51.168;4.154;2022-12-10T11:05:04;0.80;99.90
17007;DHT22;8620;51.168;4.154;2022-12-10T11:08:28;0.80;99.90
17007;DHT22;8620;51.168;4.154;2022-12-10T11:11:32;0.80;99.90
17007;DHT22;8620;51.168;4.154;2022-12-10T11:17:19;0.80;99.90
17007;DHT22;8620;51.168;4.154;2022-12-10T11:23:00;0.90;99.90
17007;DHT22;8620;51.168;4.154;2022-12-10T11:49:27;1.30;99.90
17007;DHT22;8620;51.168;4.154;2022-12-10T11:52:25;1.30;99.90
17007;DHT22;8620;51.168;4.154;2022-12-10T11:55:23;1.50;99.90
17007;DHT22;8620;51.168;4.154;2022-12-10T12:10:41;1.50;99.90
17007;DHT22;8620;51.168;4.154;2022-12-10T12:16:18;1.70;99.90
17007;DHT22;8620;51.168;4.154;2022-12-10T12:21:27;2.20;99.90
17007;DHT22;8620;51.168;4.154;2022-12-10T12:24:20;2.30;99.90
17007;DHT22;8620;51.168;4.154;2022-12-10T12:26:57;1.90;99.90
17007;DHT22;8620;51.168;4.154;2022-12-10T12:33:03;1.90;99.90
17007;DHT22;8620;51.168;4.154;2022-12-10T12:36:00;2.00;99.90
17007;DHT22;8620;51.168;4.154;2022-12-10T12:45:59;1.80;99.90
17007;DHT22;8620;51.168;4.154;2022-12-10T12:55:09;1.80;99.90
17007;DHT22;8620;51.168;4.154;2022-12-10T13:04:37;2.00;99.90
17007;DHT22;8620;51.168;4.154;2022-12-10T13:07:49;2.50;99.90
17007;DHT22;8620;51.168;4.154;2022-12-10T13:17:07;2.10;99.90
17007;DHT22;8620;51.168;4.154;2022-12-10T13:20:28;2.00;99.90
17007;DHT22;8620;51.168;4.154;2022-12-10T13:26:27;2.00;99.90
17007;DHT22;8620;51.168;4.154;2022-12-10T13:41:05;2.60;99.90
17007;DHT22;8620;51.168;4.154;2022-12-10T14:08:23;2.30;99.90
17007;DHT22;8620;51.168;4.154;2022-12-10T14:15:20;2.40;99.90
17007;DHT22;8620;51.168;4.154;2022-12-10T14:18:12;2.30;99.90
17007;DHT22;8620;51.168;4.154;2022-12-10T14:21:16;2.50;99.90
17007;DHT22;8620;51.168;4.154;2022-12-10T14:23:48;2.80;99.90
17007;DHT22;8620;51.168;4.154;2022-12-10T14:26:22;2.80;99.90
17007;DHT22;8620;51.168;4.154;2022-12-10T14:32:47;2.40;99.90
17007;DHT22;8620;51.168;4.154;2022-12-10T14:36:02;2.70;99.90
17007;DHT22;8620;51.168;4.154;2022-12-10T14:39:00;2.70;99.90
17007;DHT22;8620;51.168;4.154;2022-12-10T14:45:25;2.50;99.90
17007;DHT22;8620;51.168;4.154;2022-12-10T14:48:40;2.80;99.90
17007;DHT22;8620;51.168;4.154;2022-12-10T14:51:39;2.50;99.90
17007;DHT22;8620;51.168;4.154;2022-12-10T14:58:38;2.50;99.90
17007;DHT22;8620;51.168;4.154;2022-12-10T15:04:59;2.50;99.90
17007;DHT22;8620;51.168;4.154;2022-12-10T15:07:58;2.50;99.90
17007;DHT22;8620;51.168;4.154;2022-12-10T15:13:51;2.40;99.90
17007;DHT22;8620;51.168;4.154;2022-12-10T15:16:56;2.50;99.90
17007;DHT22;8620;51.168;4.154;2022-12-10T15:23:05;2.40;99.90
17007;DHT22;8620;51.168;4.154;2022-12-10T15:36:11;2.30;99.90
17007;DHT22;8620;51.168;4.154;2022-12-10T15:51:24;2.40;99.90
17007;DHT22;8620;51.168;4.154;2022-12-10T15:54:54;2.60;99.90
17007;DHT22;8620;51.168;4.154;2022-12-10T16:03:43;2.40;99.90
17007;DHT22;8620;51.168;4.154;2022-12-10T16:06:20;2.50;99.90
17007;DHT22;8620;51.168;4.154;2022-12-10T16:09:12;2.40;99.90
17007;DHT22;8620;51.168;4.154;2022-12-10T16:11:55;2.50;99.90
17007;DHT22;8620;51.168;4.154;2022-12-10T16:14:54;2.50;99.90
17007;DHT22;8620;51.168;4.154;2022-12-10T16:18:02;2.40;99.90
17007;DHT22;8620;51.168;4.154;2022-12-10T16:20:58;2.50;99.90
17007;DHT22;8620;51.168;4.154;2022-12-10T16:27:04;2.30;99.90
17007;DHT22;8620;51.168;4.154;2022-12-10T16:33:17;2.40;99.90
17007;DHT22;8620;51.168;4.154;2022-12-10T16:36:04;2.30;99.90
17007;DHT22;8620;51.168;4.154;2022-12-10T16:38:39;2.30;99.90
17007;DHT22;8620;51.168;4.154;2022-12-10T16:41:29;2.20;99.90
17007;DHT22;8620;51.168;4.154;2022-12-10T16:44:20;2.20;99.90
17007;DHT22;8620;51.168;4.154;2022-12-10T16:46:46;2.10;99.90
17007;DHT22;8620;51.168;4.154;2022-12-10T16:49:24;2.10;99.90
17007;DHT22;8620;51.168;4.154;2022-12-10T16:51:51;2.10;99.90
17007;DHT22;8620;51.168;4.154;2022-12-10T16:54:23;2.10;99.90
17007;DHT22;8620;51.168;4.154;2022-12-10T16:56:51;2.10;99.90
17007;DHT22;8620;51.168;4.154;2022-12-10T17:00:16;2.20;99.90
17007;DHT22;8620;51.168;4.154;2022-12-10T17:02:58;2.00;99.90
17007;DHT22;8620;51.168;4.154;2022-12-10T17:05:49;2.00;99.90
17007;DHT22;8620;51.168;4.154;2022-12-10T17:08:47;2.00;99.90
17007;DHT22;8620;51.168;4.154;2022-12-10T17:11:43;2.00;99.90
17007;DHT22;8620;51.168;4.154;2022-12-10T17:17:00;2.10;99.90
17007;DHT22;8620;51.168;4.154;2022-12-10T17:19:34;2.10;99.90
17007;DHT22;8620;51.168;4.154;2022-12-10T17:22:14;2.10;99.90
17007;DHT22;8620;51.168;4.154;2022-12-10T17:24:48;2.30;99.90
17007;DHT22;8620;51.168;4.154;2022-12-10T17:27:18;2.10;99.90
17007;DHT22;8620;51.168;4.154;2022-12-10T17:29:46;2.10;99.90
17007;DHT22;8620;51.168;4.154;2022-12-10T17:32:23;2.20;99.90
17007;DHT22;8620;51.168;4.154;2022-12-10T17:35:26;2.20;99.90
17007;DHT22;8620;51.168;4.154;2022-12-10T17:38:19;2.10;99.90
17007;DHT22;8620;51.168;4.154;2022-12-10T17:41:11;2.20;99.90
17007;DHT22;8620;51.168;4.154;2022-12-10T17:47:24;2.30;99.90
17007;DHT22;8620;51.168;4.154;2022-12-10T17:49:55;2.20;99.90
17007;DHT22;8620;51.168;4.154;2022-12-10T17:52:58;2.50;99.90
17007;DHT22;8620;51.168;4.154;2022-12-10T17:55:53;2.60;99.90
17007;DHT22;8620;51.168;4.154;2022-12-10T17:58:42;2.60;99.90
17007;DHT22;8620;51.168;4.154;2022-12-10T18:01:39;2.60;99.90
17007;DHT22;8620;51.168;4.154;2022-12-10T18:04:40;2.50;99.90
17007;DHT22;8620;51.168;4.154;2022-12-10T18:07:35;2.40;99.90
17007;DHT22;8620;51.168;4.154;2022-12-10T18:10:29;2.40;99.90
17007;DHT22;8620;51.168;4.154;2022-12-10T18:13:20;2.50;99.90
17007;DHT22;8620;51.168;4.154;2022-12-10T18:16:18;2.40;99.90
17007;DHT22;8620;51.168;4.154;2022-12-10T18:18:51;2.50;99.90
17007;DHT22;8620;51.168;4.154;2022-12-10T18:21:23;2.70;99.90
17007;DHT22;8620;51.168;4.154;2022-12-10T18:24:09;2.80;99.90
17007;DHT22;8620;51.168;4.154;2022-12-10T18:26:38;2.60;99.90
17007;DHT22;8620;51.168;4.154;2022-12-10T18:29:12;2.50;99.90
17007;DHT22;8620;51.168;4.154;2022-12-10T18:31:51;2.50;99.90
17007;DHT22;8620;51.168;4.154;2022-12-10T18:34:22;2.50;99.90
17007;DHT22;8620;51.168;4.154;2022-12-10T18:37:17;2.40;99.90
17007;DHT22;8620;51.168;4.154;2022-12-10T18:39:45;2.40;99.90
17007;DHT22;8620;51.168;4.154;2022-12-10T18:42:20;2.40;99.90
17007;DHT22;8620;51.168;4.154;2022-12-10T18:44:46;2.60;99.90
17007;DHT22;8620;51.168;4.154;2022-12-10T18:47:21;2.80;99.90
17007;DHT22;8620;51.168;4.154;2022-12-10T18:49:47;2.90;99.90
17007;DHT22;8620;51.168;4.154;2022-12-10T18:52:13;3.00;99.90
17007;DHT22;8620;51.168;4.154;2022-12-10T18:54:42;2.80;99.90
17007;DHT22;8620;51.168;4.154;2022-12-10T18:57:12;2.60;99.90
17007;DHT22;8620;51.168;4.154;2022-12-10T18:59:42;2.50;99.90
17007;DHT22;8620;51.168;4.154;2022-12-10T19:02:11;2.70;99.90
17007;DHT22;8620;51.168;4.154;2022-12-10T19:05:21;2.70;99.90
17007;DHT22;8620;51.168;4.154;2022-12-10T19:07:53;2.50;99.90
17007;DHT22;8620;51.168;4.154;2022-12-10T19:10:24;2.60;99.90
17007;DHT22;8620;51.168;4.154;2022-12-10T19:13:02;3.00;99.90
17007;DHT22;8620;51.168;4.154;2022-12-10T19:15:28;2.80;99.90
17007;DHT22;8620;51.168;4.154;2022-12-10T19:17:57;2.70;99.90
17007;DHT22;8620;51.168;4.154;2022-12-10T19:20:52;2.80;99.90
17007;DHT22;8620;51.168;4.154;2022-12-10T19:23:43;2.60;99.90
17007;DHT22;8620;51.168;4.154;2022-12-10T19:26:29;2.70;99.90
17007;DHT22;8620;51.168;4.154;2022-12-10T19:29:23;2.70;99.90
17007;DHT22;8620;51.168;4.154;2022-12-10T19:31:54;2.60;99.90
17007;DHT22;8620;51.168;4.154;2022-12-10T19:34:32;2.50;99.90
17007;DHT22;8620;51.168;4.154;2022-12-10T19:36:59;2.50;99.90
17007;DHT22;8620;51.168;4.154;2022-12-10T19:39:27;2.50;99.90
17007;DHT22;8620;51.168;4.154;2022-12-10T19:42:01;2.40;99.90
17007;DHT22;8620;51.168;4.154;2022-12-10T19:44:44;2.30;99.90
17007;DHT22;8620;51.168;4.154;2022-12-10T19:47:34;2.50;99.90
17007;DHT22;8620;51.168;4.154;2022-12-10T19:50:00;2.50;99.90
17007;DHT22;8620;51.168;4.154;2022-12-10T19:52:31;2.50;99.90
17007;DHT22;8620;51.168;4.154;2022-12-10T19:55:03;2.60;99.90
17007;DHT22;8620;51.168;4.154;2022-12-10T19:57:50;2.70;99.90
17007;DHT22;8620;51.168;4.154;2022-12-10T20:00:27;2.80;99.90
17007;DHT22;8620;51.168;4.154;2022-12-10T20:02:56;2.50;99.90
17007;DHT22;8620;51.168;4.154;2022-12-10T20:05:28;2.30;99.90
17007;DHT22;8620;51.168;4.154;2022-12-10T20:08:05;2.40;99.90
17007;DHT22;8620;51.168;4.154;2022-12-10T20:10:42;2.30;99.90
17007;DHT22;8620;51.168;4.154;2022-12-10T20:13:11;2.20;99.90
17007;DHT22;8620;51.168;4.154;2022-12-10T20:15:37;2.20;99.90
17007;DHT22;8620;51.168;4.154;2022-12-10T20:18:06;2.20;99.90
17007;DHT22;8620;51.168;4.154;2022-12-10T20:20:32;2.30;99.90
17007;DHT22;8620;51.168;4.154;2022-12-10T20:23:00;2.30;99.90
17007;DHT22;8620;51.168;4.154;2022-12-10T20:25:27;2.40;99.90
17007;DHT22;8620;51.168;4.154;2022-12-10T20:27:56;2.30;99.90
17007;DHT22;8620;51.168;4.154;2022-12-10T20:30:30;2.20;99.90
17007;DHT22;8620;51.168;4.154;2022-12-10T20:32:56;2.30;99.90
17007;DHT22;8620;51.168;4.154;2022-12-10T20:35:27;2.30;99.90
17007;DHT22;8620;51.168;4.154;2022-12-10T20:37:59;2.30;99.90
17007;DHT22;8620;51.168;4.154;2022-12-10T20:40:27;2.20;99.90
17007;DHT22;8620;51.168;4.154;2022-12-10T20:42:53;2.20;99.90
17007;DHT22;8620;51.168;4.154;2022-12-10T20:45:37;2.20;99.90
17007;DHT22;8620;51.168;4.154;2022-12-10T20:48:05;2.30;99.90
17007;DHT22;8620;51.168;4.154;2022-12-10T20:51:09;2.30;99.90
17007;DHT22;8620;51.168;4.154;2022-12-10T20:53:50;2.40;99.90
17007;DHT22;8620;51.168;4.154;2022-12-10T20:56:21;2.50;99.90
17007;DHT22;8620;51.168;4.154;2022-12-10T20:58:52;2.50;99.90
17007;DHT22;8620;51.168;4.154;2022-12-10T21:01:24;2.70;99.90
17007;DHT22;8620;51.168;4.154;2022-12-10T21:03:55;2.50;99.90
17007;DHT22;8620;51.168;4.154;2022-12-10T21:06:31;2.60;99.90
17007;DHT22;8620;51.168;4.154;2022-12-10T21:09:00;2.50;99.90
17007;DHT22;8620;51.168;4.154;2022-12-10T21:11:31;2.50;99.90
17007;DHT22;8620;51.168;4.154;2022-12-10T21:13:57;2.70;99.90
17007;DHT22;8620;51.168;4.154;2022-12-10T21:16:32;2.60;99.90
17007;DHT22;8620;51.168;4.154;2022-12-10T21:19:08;2.60;99.90
17007;DHT22;8620;51.168;4.154;2022-12-10T21:21:35;2.50;99.90
17007;DHT22;8620;51.168;4.154;2022-12-10T21:24:04;2.70;99.90
17007;DHT22;8620;51.168;4.154;2022-12-10T21:26:34;2.90;99.90
17007;DHT22;8620;51.168;4.154;2022-12-10T21:29:05;2.90;99.90
17007;DHT22;8620;51.168;4.154;2022-12-10T21:31:37;2.90;99.90
17007;DHT22;8620;51.168;4.154;2022-12-10T21:34:06;2.80;99.90
17007;DHT22;8620;51.168;4.154;2022-12-10T21:36:40;2.70;99.90
17007;DHT22;8620;51.168;4.154;2022-12-10T21:39:12;2.50;99.90
17007;DHT22;8620;51.168;4.154;2022-12-10T21:41:41;2.60;99.90
17007;DHT22;8620;51.168;4.154;2022-12-10T21:44:25;2.60;99.90
17007;DHT22;8620;51.168;4.154;2022-12-10T21:46:51;2.70;99.90
17007;DHT22;8620;51.168;4.154;2022-12-10T21:49:20;2.60;99.90
17007;DHT22;8620;51.168;4.154;2022-12-10T21:51:51;2.60;99.90
17007;DHT22;8620;51.168;4.154;2022-12-10T21:54:17;2.60;99.90
17007;DHT22;8620;51.168;4.154;2022-12-10T21:56:43;2.50;99.90
17007;DHT22;8620;51.168;4.154;2022-12-10T21:59:09;2.60;99.90
17007;DHT22;8620;51.168;4.154;2022-12-10T22:01:40;2.60;99.90
17007;DHT22;8620;51.168;4.154;2022-12-10T22:04:09;2.70;99.90
17007;DHT22;8620;51.168;4.154;2022-12-10T22:06:35;2.80;99.90
17007;DHT22;8620;51.168;4.154;2022-12-10T22:09:01;2.80;99.90
17007;DHT22;8620;51.168;4.154;2022-12-10T22:11:32;2.80;99.90
17007;DHT22;8620;51.168;4.154;2022-12-10T22:14:22;2.70;99.90
17007;DHT22;8620;51.168;4.154;2022-12-10T22:16:48;2.70;99.90
17007;DHT22;8620;51.168;4.154;2022-12-10T22:19:19;2.90;99.90
17007;DHT22;8620;51.168;4.154;2022-12-10T22:33:27;2.10;99.90
17007;DHT22;8620;51.168;4.154;2022-12-10T22:35:57;2.10;99.90
17007;DHT22;8620;51.168;4.154;2022-12-10T22:38:26;2.40;99.90
17007;DHT22;8620;51.168;4.154;2022-12-10T22:40:52;2.50;99.90
17007;DHT22;8620;51.168;4.154;2022-12-10T22:43:18;2.50;99.90
17007;DHT22;8620;51.168;4.154;2022-12-10T22:45:51;2.50;99.90
17007;DHT22;8620;51.168;4.154;2022-12-10T22:48:21;2.50;99.90
17007;DHT22;8620;51.168;4.154;2022-12-10T22:50:59;2.60;99.90
17007;DHT22;8620;51.168;4.154;2022-12-10T22:53:37;2.80;99.90
17007;DHT22;8620;51.168;4.154;2022-12-10T22:56:29;2.70;99.90
17007;DHT22;8620;51.168;4.154;2022-12-10T22:59:08;2.80;99.90
